sensor_id;sensor_type;location;lat;lon;timestamp;pressure;altitude;pressure_sealevel;temperature;humidity
1480;BME280;732;51.698;4.886;2022-10-03T00:04:50;102705.00;;;12.13;100.00
1480;BME280;732;51.698;4.886;2022-10-03T00:07:59;102724.75;;;12.26;100.00
1480;BME280;732;51.698;4.886;2022-10-03T00:10:37;102689.97;;;12.09;100.00
1480;BME280;732;51.698;4.886;2022-10-03T00:13:21;102604.56;;;11.52;100.00
1480;BME280;732;51.698;4.886;2022-10-03T00:16:05;102686.78;;;11.96;100.00
1480;BME280;732;51.698;4.886;2022-10-03T00:18:50;102722.25;;;12.08;100.00
1480;BME280;732;51.698;4.886;2022-10-03T00:21:40;102737.38;;;12.15;100.00
1480;BME280;732;51.698;4.886;2022-10-03T00:24:23;102737.47;;;12.17;100.00
1480;BME280;732;51.698;4.886;2022-10-03T00:26:59;102743.28;;;12.10;100.00
1480;BME280;732;51.698;4.886;2022-10-03T00:29:47;102742.94;;;12.02;100.00
1480;BME280;732;51.698;4.886;2022-10-03T00:32:40;102761.63;;;12.10;100.00
1480;BME280;732;51.698;4.886;2022-10-03T00:35:27;102737.66;;;12.01;100.00
1480;BME280;732;51.698;4.886;2022-10-03T00:38:11;102743.16;;;12.07;100.00
1480;BME280;732;51.698;4.886;2022-10-03T00:41:17;102721.91;;;12.01;100.00
1480;BME280;732;51.698;4.886;2022-10-03T00:44:55;102758.31;;;12.14;100.00
1480;BME280;732;51.698;4.886;2022-10-03T00:48:06;102697.19;;;11.74;100.00
1480;BME280;732;51.698;4.886;2022-10-03T00:50:56;102710.34;;;11.75;100.00
1480;BME280;732;51.698;4.886;2022-10-03T00:53:55;102773.59;;;12.03;100.00
1480;BME280;732;51.698;4.886;2022-10-03T00:56:47;102718.25;;;11.77;100.00
1480;BME280;732;51.698;4.886;2022-10-03T00:59:33;102682.66;;;11.42;100.00
1480;BME280;732;51.698;4.886;2022-10-03T01:02:31;102783.47;;;12.10;100.00
1480;BME280;732;51.698;4.886;2022-10-03T01:05:15;102768.09;;;12.18;100.00
1480;BME280;732;51.698;4.886;2022-10-03T01:08:36;102743.72;;;12.00;100.00
1480;BME280;732;51.698;4.886;2022-10-03T01:11:22;102795.28;;;12.01;100.00
1480;BME280;732;51.698;4.886;2022-10-03T01:14:09;102747.34;;;11.83;100.00
1480;BME280;732;51.698;4.886;2022-10-03T01:16:56;102715.59;;;11.75;100.00
1480;BME280;732;51.698;4.886;2022-10-03T01:19:47;102748.13;;;12.01;100.00
1480;BME280;732;51.698;4.886;2022-10-03T01:22:59;102680.38;;;11.49;100.00
1480;BME280;732;51.698;4.886;2022-10-03T01:25:38;102786.00;;;12.07;100.00
1480;BME280;732;51.698;4.886;2022-10-03T01:28:35;102790.44;;;12.10;100.00
1480;BME280;732;51.698;4.886;2022-10-03T01:31:28;102795.50;;;12.05;100.00
1480;BME280;732;51.698;4.886;2022-10-03T01:34:06;102796.53;;;12.09;100.00
1480;BME280;732;51.698;4.886;2022-10-03T01:36:46;102703.78;;;11.46;100.00
1480;BME280;732;51.698;4.886;2022-10-03T01:39:26;102776.69;;;11.95;100.00
1480;BME280;732;51.698;4.886;2022-10-03T01:41:58;102751.34;;;11.75;100.00
1480;BME280;732;51.698;4.886;2022-10-03T01:44:47;102803.84;;;11.97;100.00
1480;BME280;732;51.698;4.886;2022-10-03T01:47:25;102786.00;;;11.88;100.00
1480;BME280;732;51.698;4.886;2022-10-03T01:50:03;102786.97;;;11.90;100.00
1480;BME280;732;51.698;4.886;2022-10-03T01:52:40;102755.06;;;11.61;100.00
1480;BME280;732;51.698;4.886;2022-10-03T01:55:21;102779.81;;;11.67;100.00
1480;BME280;732;51.698;4.886;2022-10-03T01:57:57;102756.50;;;11.54;100.00
1480;BME280;732;51.698;4.886;2022-10-03T02:00:35;102799.81;;;11.84;100.00
1480;BME280;732;51.698;4.886;2022-10-03T02:03:16;102781.00;;;11.74;100.00
1480;BME280;732;51.698;4.886;2022-10-03T02:05:56;102705.19;;;11.19;100.00
1480;BME280;732;51.698;4.886;2022-10-03T02:08:53;102675.63;;;11.03;100.00
1480;BME280;732;51.698;4.886;2022-10-03T02:11:31;102804.13;;;11.84;100.00
1480;BME280;732;51.698;4.886;2022-10-03T02:14:19;102798.78;;;11.81;100.00
1480;BME280;732;51.698;4.886;2022-10-03T02:16:58;102803.59;;;11.72;100.00
1480;BME280;732;51.698;4.886;2022-10-03T02:19:44;102801.53;;;11.84;100.00
1480;BME280;732;51.698;4.886;2022-10-03T02:22:30;102782.97;;;11.60;100.00
1480;BME280;732;51.698;4.886;2022-10-03T02:25:17;102816.84;;;11.75;100.00
1480;BME280;732;51.698;4.886;2022-10-03T02:28:25;102812.63;;;11.78;100.00
1480;BME280;732;51.698;4.886;2022-10-03T02:34:46;102782.06;;;11.60;100.00
1480;BME280;732;51.698;4.886;2022-10-03T02:40:57;102803.44;;;11.69;100.00
1480;BME280;732;51.698;4.886;2022-10-03T02:51:42;102796.72;;;11.74;100.00
1480;BME280;732;51.698;4.886;2022-10-03T02:54:52;102795.06;;;11.76;100.00
1480;BME280;732;51.698;4.886;2022-10-03T02:57:53;102772.38;;;11.57;100.00
1480;BME280;732;51.698;4.886;2022-10-03T03:00:38;102742.53;;;11.34;100.00
1480;BME280;732;51.698;4.886;2022-10-03T03:03:44;102765.94;;;11.50;100.00
1480;BME280;732;51.698;4.886;2022-10-03T03:06:49;102770.16;;;11.47;100.00
1480;BME280;732;51.698;4.886;2022-10-03T03:12:59;102805.53;;;11.76;100.00
1480;BME280;732;51.698;4.886;2022-10-03T03:18:53;102740.38;;;11.26;100.00
1480;BME280;732;51.698;4.886;2022-10-03T03:21:38;102735.75;;;11.20;100.00
1480;BME280;732;51.698;4.886;2022-10-03T03:24:24;102784.63;;;11.58;100.00
1480;BME280;732;51.698;4.886;2022-10-03T03:27:18;102742.25;;;11.28;100.00
1480;BME280;732;51.698;4.886;2022-10-03T03:29:58;102813.25;;;11.73;100.00
1480;BME280;732;51.698;4.886;2022-10-03T03:32:43;102792.22;;;11.71;100.00
1480;BME280;732;51.698;4.886;2022-10-03T03:35:27;102800.44;;;11.79;100.00
1480;BME280;732;51.698;4.886;2022-10-03T03:38:19;102808.84;;;11.91;100.00
1480;BME280;732;51.698;4.886;2022-10-03T03:41:17;102810.56;;;11.90;100.00
1480;BME280;732;51.698;4.886;2022-10-03T03:44:36;102817.03;;;11.98;100.00
1480;BME280;732;51.698;4.886;2022-10-03T03:47:29;102794.97;;;11.93;100.00
1480;BME280;732;51.698;4.886;2022-10-03T03:50:22;102645.13;;;11.03;100.00
1480;BME280;732;51.698;4.886;2022-10-03T03:53:24;102779.53;;;11.80;100.00
1480;BME280;732;51.698;4.886;2022-10-03T03:56:23;102818.34;;;11.89;100.00
1480;BME280;732;51.698;4.886;2022-10-03T03:59:08;102804.34;;;11.69;100.00
1480;BME280;732;51.698;4.886;2022-10-03T04:01:57;102791.47;;;11.74;100.00
1480;BME280;732;51.698;4.886;2022-10-03T04:04:48;102833.72;;;11.81;100.00
1480;BME280;732;51.698;4.886;2022-10-03T04:07:37;102792.47;;;11.58;100.00
1480;BME280;732;51.698;4.886;2022-10-03T04:10:33;102817.13;;;11.63;100.00
1480;BME280;732;51.698;4.886;2022-10-03T04:13:28;102783.19;;;11.45;100.00
1480;BME280;732;51.698;4.886;2022-10-03T04:16:30;102825.09;;;11.65;100.00
1480;BME280;732;51.698;4.886;2022-10-03T04:19:28;102827.72;;;11.65;100.00
1480;BME280;732;51.698;4.886;2022-10-03T04:22:27;102827.25;;;11.55;100.00
1480;BME280;732;51.698;4.886;2022-10-03T04:25:29;102808.50;;;11.46;100.00
1480;BME280;732;51.698;4.886;2022-10-03T04:28:50;102816.88;;;11.57;100.00
1480;BME280;732;51.698;4.886;2022-10-03T04:31:35;102808.75;;;11.51;100.00
1480;BME280;732;51.698;4.886;2022-10-03T04:34:35;102821.84;;;11.51;100.00
1480;BME280;732;51.698;4.886;2022-10-03T04:37:30;102820.56;;;11.43;100.00
1480;BME280;732;51.698;4.886;2022-10-03T04:40:23;102810.22;;;11.27;100.00
1480;BME280;732;51.698;4.886;2022-10-03T04:43:04;102791.94;;;11.09;100.00
1480;BME280;732;51.698;4.886;2022-10-03T04:46:04;102766.38;;;11.04;100.00
1480;BME280;732;51.698;4.886;2022-10-03T04:48:48;102835.44;;;11.44;100.00
1480;BME280;732;51.698;4.886;2022-10-03T04:51:31;102769.06;;;11.05;100.00
1480;BME280;732;51.698;4.886;2022-10-03T04:54:18;102828.97;;;11.36;100.00
1480;BME280;732;51.698;4.886;2022-10-03T04:56:56;102812.50;;;11.19;100.00
1480;BME280;732;51.698;4.886;2022-10-03T04:59:46;102767.59;;;10.93;100.00
1480;BME280;732;51.698;4.886;2022-10-03T05:02:31;102822.25;;;11.23;100.00
1480;BME280;732;51.698;4.886;2022-10-03T05:08:29;102785.44;;;11.01;100.00
1480;BME280;732;51.698;4.886;2022-10-03T05:11:14;102843.34;;;11.26;100.00
1480;BME280;732;51.698;4.886;2022-10-03T05:13:58;102805.69;;;11.05;100.00
1480;BME280;732;51.698;4.886;2022-10-03T05:16:37;102738.34;;;10.65;100.00
1480;BME280;732;51.698;4.886;2022-10-03T05:19:42;102843.78;;;11.18;100.00
1480;BME280;732;51.698;4.886;2022-10-03T05:22:26;102823.19;;;11.06;100.00
1480;BME280;732;51.698;4.886;2022-10-03T05:25:13;102815.06;;;11.00;100.00
1480;BME280;732;51.698;4.886;2022-10-03T05:27:50;102852.78;;;11.23;100.00
1480;BME280;732;51.698;4.886;2022-10-03T05:30:35;102849.31;;;11.24;100.00
1480;BME280;732;51.698;4.886;2022-10-03T05:33:21;102848.41;;;11.23;100.00
1480;BME280;732;51.698;4.886;2022-10-03T05:36:08;102832.34;;;11.16;100.00
1480;BME280;732;51.698;4.886;2022-10-03T05:42:34;102823.69;;;11.17;100.00
1480;BME280;732;51.698;4.886;2022-10-03T05:45:13;102845.91;;;11.25;100.00
1480;BME280;732;51.698;4.886;2022-10-03T05:47:54;102811.59;;;11.01;100.00
1480;BME280;732;51.698;4.886;2022-10-03T05:57:14;102865.66;;;11.55;100.00
1480;BME280;732;51.698;4.886;2022-10-03T06:00:08;102867.44;;;11.74;100.00
1480;BME280;732;51.698;4.886;2022-10-03T06:03:10;102872.53;;;11.90;100.00
1480;BME280;732;51.698;4.886;2022-10-03T06:05:59;102854.81;;;12.03;100.00
1480;BME280;732;51.698;4.886;2022-10-03T06:09:03;102823.31;;;12.02;100.00
1480;BME280;732;51.698;4.886;2022-10-03T06:12:00;102876.88;;;12.48;100.00
1480;BME280;732;51.698;4.886;2022-10-03T06:14:45;102884.06;;;12.52;100.00
1480;BME280;732;51.698;4.886;2022-10-03T06:17:54;102889.91;;;12.66;100.00
1480;BME280;732;51.698;4.886;2022-10-03T06:20:58;102881.06;;;12.84;100.00
1480;BME280;732;51.698;4.886;2022-10-03T06:30:55;102888.38;;;13.12;100.00
1480;BME280;732;51.698;4.886;2022-10-03T06:34:25;102883.84;;;13.30;100.00
1480;BME280;732;51.698;4.886;2022-10-03T06:37:40;102895.75;;;13.43;100.00
1480;BME280;732;51.698;4.886;2022-10-03T06:40:49;102887.16;;;13.47;100.00
1480;BME280;732;51.698;4.886;2022-10-03T06:44:00;102889.19;;;13.54;100.00
1480;BME280;732;51.698;4.886;2022-10-03T06:46:58;102849.91;;;13.34;100.00
1480;BME280;732;51.698;4.886;2022-10-03T06:50:11;102852.06;;;13.45;100.00
1480;BME280;732;51.698;4.886;2022-10-03T06:56:11;102876.81;;;13.51;100.00
1480;BME280;732;51.698;4.886;2022-10-03T06:59:25;102889.19;;;13.54;100.00
1480;BME280;732;51.698;4.886;2022-10-03T07:06:11;102895.69;;;13.41;100.00
1480;BME280;732;51.698;4.886;2022-10-03T07:09:23;102864.81;;;13.13;100.00
1480;BME280;732;51.698;4.886;2022-10-03T07:12:55;102888.03;;;13.25;100.00
1480;BME280;732;51.698;4.886;2022-10-03T07:19:16;102884.00;;;13.33;100.00
1480;BME280;732;51.698;4.886;2022-10-03T07:22:39;102914.97;;;13.41;100.00
1480;BME280;732;51.698;4.886;2022-10-03T07:26:11;102914.00;;;13.39;100.00
1480;BME280;732;51.698;4.886;2022-10-03T07:35:34;102927.22;;;13.63;100.00
1480;BME280;732;51.698;4.886;2022-10-03T07:39:06;102921.84;;;13.82;100.00
1480;BME280;732;51.698;4.886;2022-10-03T07:42:27;102933.91;;;14.23;100.00
1480;BME280;732;51.698;4.886;2022-10-03T07:45:32;102925.88;;;14.42;100.00
1480;BME280;732;51.698;4.886;2022-10-03T07:48:43;102939.00;;;14.66;100.00
1480;BME280;732;51.698;4.886;2022-10-03T07:51:26;102944.56;;;14.75;100.00
1480;BME280;732;51.698;4.886;2022-10-03T07:54:31;102887.03;;;14.60;100.00
1480;BME280;732;51.698;4.886;2022-10-03T07:57:47;102920.88;;;15.00;100.00
1480;BME280;732;51.698;4.886;2022-10-03T08:00:25;102909.31;;;14.95;100.00
1480;BME280;732;51.698;4.886;2022-10-03T08:03:50;102940.28;;;15.28;100.00
1480;BME280;732;51.698;4.886;2022-10-03T08:06:29;102916.53;;;15.27;100.00
1480;BME280;732;51.698;4.886;2022-10-03T08:09:33;102933.22;;;15.54;100.00
1480;BME280;732;51.698;4.886;2022-10-03T08:12:35;102933.16;;;15.79;100.00
1480;BME280;732;51.698;4.886;2022-10-03T08:15:15;102876.34;;;15.61;100.00
1480;BME280;732;51.698;4.886;2022-10-03T08:18:51;102912.34;;;16.19;100.00
1480;BME280;732;51.698;4.886;2022-10-03T08:21:33;102933.16;;;16.40;100.00
1480;BME280;732;51.698;4.886;2022-10-03T08:24:47;102931.19;;;16.63;100.00
1480;BME280;732;51.698;4.886;2022-10-03T08:27:40;102914.81;;;16.76;100.00
1480;BME280;732;51.698;4.886;2022-10-03T08:30:20;102880.38;;;16.40;100.00
1480;BME280;732;51.698;4.886;2022-10-03T08:33:24;102932.09;;;16.63;100.00
1480;BME280;732;51.698;4.886;2022-10-03T08:36:43;102939.25;;;16.67;100.00
1480;BME280;732;51.698;4.886;2022-10-03T08:39:40;102939.25;;;16.67;100.00
1480;BME280;732;51.698;4.886;2022-10-03T08:42:43;102939.47;;;16.76;100.00
1480;BME280;732;51.698;4.886;2022-10-03T08:45:46;102900.56;;;16.69;100.00
1480;BME280;732;51.698;4.886;2022-10-03T08:48:57;102937.47;;;17.36;100.00
1480;BME280;732;51.698;4.886;2022-10-03T08:52:02;102908.59;;;17.44;100.00
1480;BME280;732;51.698;4.886;2022-10-03T08:55:11;102892.19;;;17.57;100.00
1480;BME280;732;51.698;4.886;2022-10-03T08:58:16;102929.41;;;18.06;100.00
1480;BME280;732;51.698;4.886;2022-10-03T09:01:21;102921.66;;;18.15;100.00
1480;BME280;732;51.698;4.886;2022-10-03T09:04:38;102919.16;;;18.23;100.00
1480;BME280;732;51.698;4.886;2022-10-03T09:07:50;102918.25;;;18.21;100.00
1480;BME280;732;51.698;4.886;2022-10-03T09:10:52;102908.91;;;18.39;100.00
1480;BME280;732;51.698;4.886;2022-10-03T09:14:04;102901.03;;;18.88;100.00
1480;BME280;732;51.698;4.886;2022-10-03T09:16:55;102888.47;;;19.29;100.00
1480;BME280;732;51.698;4.886;2022-10-03T09:20:16;102887.06;;;19.54;100.00
1480;BME280;732;51.698;4.886;2022-10-03T09:30:21;102874.88;;;20.37;100.00
1480;BME280;732;51.698;4.886;2022-10-03T09:47:22;102818.50;;;20.71;100.00
1480;BME280;732;51.698;4.886;2022-10-03T09:50:53;102855.91;;;20.95;100.00
1480;BME280;732;51.698;4.886;2022-10-03T10:00:24;102836.28;;;20.75;100.00
1480;BME280;732;51.698;4.886;2022-10-03T10:03:15;102828.03;;;20.46;100.00
1480;BME280;732;51.698;4.886;2022-10-03T10:06:26;102858.44;;;20.80;100.00
1480;BME280;732;51.698;4.886;2022-10-03T10:09:59;102858.44;;;20.80;100.00
1480;BME280;732;51.698;4.886;2022-10-03T10:13:10;102764.22;;;20.40;100.00
1480;BME280;732;51.698;4.886;2022-10-03T10:16:14;102831.09;;;20.93;100.00
1480;BME280;732;51.698;4.886;2022-10-03T10:19:28;102837.50;;;21.13;100.00
1480;BME280;732;51.698;4.886;2022-10-03T10:25:35;102841.09;;;21.23;100.00
1480;BME280;732;51.698;4.886;2022-10-03T10:29:09;102837.50;;;21.15;100.00
1480;BME280;732;51.698;4.886;2022-10-03T10:32:48;102840.25;;;21.28;100.00
1480;BME280;732;51.698;4.886;2022-10-03T10:45:42;102832.00;;;20.97;100.00
1480;BME280;732;51.698;4.886;2022-10-03T10:49:13;102812.59;;;21.05;100.00
1480;BME280;732;51.698;4.886;2022-10-03T10:59:45;102822.63;;;21.47;100.00
1480;BME280;732;51.698;4.886;2022-10-03T11:09:51;102816.22;;;21.19;100.00
1480;BME280;732;51.698;4.886;2022-10-03T11:13:10;102794.94;;;21.15;100.00
1480;BME280;732;51.698;4.886;2022-10-03T11:16:51;102811.09;;;21.57;100.00
1480;BME280;732;51.698;4.886;2022-10-03T11:23:39;102801.50;;;21.86;100.00
1480;BME280;732;51.698;4.886;2022-10-03T11:26:51;102813.09;;;21.94;100.00
1480;BME280;732;51.698;4.886;2022-10-03T11:30:19;102821.13;;;22.32;100.00
1480;BME280;732;51.698;4.886;2022-10-03T11:33:40;102798.06;;;22.93;100.00
1480;BME280;732;51.698;4.886;2022-10-03T11:37:06;102806.84;;;23.56;100.00
1480;BME280;732;51.698;4.886;2022-10-03T11:39:50;102806.75;;;23.76;100.00
1480;BME280;732;51.698;4.886;2022-10-03T11:42:28;102797.72;;;24.00;100.00
1480;BME280;732;51.698;4.886;2022-10-03T11:45:14;102797.72;;;23.98;100.00
1480;BME280;732;51.698;4.886;2022-10-03T11:47:56;102776.53;;;23.68;100.00
1480;BME280;732;51.698;4.886;2022-10-03T11:50:40;102781.06;;;23.49;100.00
1480;BME280;732;51.698;4.886;2022-10-03T11:53:40;102804.28;;;23.14;100.00
1480;BME280;732;51.698;4.886;2022-10-03T11:56:29;102782.06;;;22.96;100.00
1480;BME280;732;51.698;4.886;2022-10-03T11:59:30;102792.75;;;22.85;100.00
1480;BME280;732;51.698;4.886;2022-10-03T12:02:12;102803.44;;;22.73;100.00
1480;BME280;732;51.698;4.886;2022-10-03T12:05:01;102803.44;;;22.61;100.00
1480;BME280;732;51.698;4.886;2022-10-03T12:07:41;102781.19;;;22.48;100.00
1480;BME280;732;51.698;4.886;2022-10-03T12:10:48;102793.63;;;22.43;100.00
1480;BME280;732;51.698;4.886;2022-10-03T12:13:28;102799.84;;;22.44;100.00
1480;BME280;732;51.698;4.886;2022-10-03T12:16:01;102799.84;;;22.36;100.00
1480;BME280;732;51.698;4.886;2022-10-03T12:18:51;102786.50;;;22.18;100.00
1480;BME280;732;51.698;4.886;2022-10-03T12:21:25;102795.31;;;22.04;100.00
1480;BME280;732;51.698;4.886;2022-10-03T12:24:19;102792.72;;;22.13;100.00
1480;BME280;732;51.698;4.886;2022-10-03T12:27:03;102795.22;;;21.75;100.00
1480;BME280;732;51.698;4.886;2022-10-03T12:29:36;102790.47;;;21.14;100.00
1480;BME280;732;51.698;4.886;2022-10-03T12:32:19;102759.31;;;20.91;100.00
1480;BME280;732;51.698;4.886;2022-10-03T12:34:56;102784.34;;;21.24;100.00
1480;BME280;732;51.698;4.886;2022-10-03T12:37:43;102793.28;;;21.33;100.00
1480;BME280;732;51.698;4.886;2022-10-03T12:40:22;102742.56;;;21.03;100.00
1480;BME280;732;51.698;4.886;2022-10-03T12:43:04;102792.44;;;21.43;100.00
1480;BME280;732;51.698;4.886;2022-10-03T12:45:39;102800.31;;;21.21;100.00
1480;BME280;732;51.698;4.886;2022-10-03T12:48:28;102775.16;;;20.76;100.00
1480;BME280;732;51.698;4.886;2022-10-03T12:51:05;102764.56;;;20.82;100.00
1480;BME280;732;51.698;4.886;2022-10-03T12:53:52;102769.28;;;21.24;100.00
1480;BME280;732;51.698;4.886;2022-10-03T12:56:35;102739.78;;;20.86;100.00
1480;BME280;732;51.698;4.886;2022-10-03T12:59:30;102788.88;;;21.46;100.00
1480;BME280;732;51.698;4.886;2022-10-03T13:02:25;102715.91;;;20.96;100.00
1480;BME280;732;51.698;4.886;2022-10-03T13:05:31;102763.03;;;21.19;100.00
1480;BME280;732;51.698;4.886;2022-10-03T13:08:10;102751.53;;;21.23;100.00
1480;BME280;732;51.698;4.886;2022-10-03T13:10:49;102723.22;;;21.28;100.00
1480;BME280;732;51.698;4.886;2022-10-03T13:13:30;102750.94;;;21.94;100.00
1480;BME280;732;51.698;4.886;2022-10-03T13:16:19;102741.19;;;22.06;100.00
1480;BME280;732;51.698;4.886;2022-10-03T13:18:56;102771.44;;;22.44;100.00
1480;BME280;732;51.698;4.886;2022-10-03T13:22:00;102768.75;;;22.50;100.00
1480;BME280;732;51.698;4.886;2022-10-03T13:24:39;102743.88;;;22.12;100.00
1480;BME280;732;51.698;4.886;2022-10-03T13:27:25;102743.88;;;22.20;100.00
1480;BME280;732;51.698;4.886;2022-10-03T13:30:04;102772.28;;;22.25;100.00
1480;BME280;732;51.698;4.886;2022-10-03T13:32:37;102730.50;;;21.80;100.00
1480;BME280;732;51.698;4.886;2022-10-03T13:35:33;102748.06;;;21.41;100.00
1480;BME280;732;51.698;4.886;2022-10-03T13:39:00;102770.28;;;21.55;100.00
1480;BME280;732;51.698;4.886;2022-10-03T13:41:54;102726.75;;;21.30;100.00
1480;BME280;732;51.698;4.886;2022-10-03T13:44:35;102713.25;;;20.96;100.00
1480;BME280;732;51.698;4.886;2022-10-03T13:47:28;102755.00;;;21.12;100.00
1480;BME280;732;51.698;4.886;2022-10-03T13:50:00;102719.47;;;20.95;100.00
1480;BME280;732;51.698;4.886;2022-10-03T13:52:37;102752.34;;;21.09;100.00
1480;BME280;732;51.698;4.886;2022-10-03T13:55:19;102721.06;;;20.71;100.00
1480;BME280;732;51.698;4.886;2022-10-03T13:58:30;102743.25;;;20.72;100.00
1480;BME280;732;51.698;4.886;2022-10-03T14:01:41;102744.25;;;20.92;100.00
1480;BME280;732;51.698;4.886;2022-10-03T14:04:40;102735.31;;;20.84;100.00
1480;BME280;732;51.698;4.886;2022-10-03T14:07:22;102736.38;;;21.06;100.00
1480;BME280;732;51.698;4.886;2022-10-03T14:10:08;102733.69;;;21.03;100.00
1480;BME280;732;51.698;4.886;2022-10-03T14:13:07;102714.91;;;20.77;100.00
1480;BME280;732;51.698;4.886;2022-10-03T14:15:52;102722.13;;;20.96;100.00
1480;BME280;732;51.698;4.886;2022-10-03T14:18:35;102693.69;;;20.84;100.00
1480;BME280;732;51.698;4.886;2022-10-03T14:21:43;102726.72;;;21.24;100.00
1480;BME280;732;51.698;4.886;2022-10-03T14:24:36;102695.69;;;21.19;100.00
1480;BME280;732;51.698;4.886;2022-10-03T14:27:46;102715.22;;;21.31;100.00
1480;BME280;732;51.698;4.886;2022-10-03T14:30:20;102718.75;;;21.23;100.00
1480;BME280;732;51.698;4.886;2022-10-03T14:33:03;102659.09;;;20.77;100.00
1480;BME280;732;51.698;4.886;2022-10-03T14:35:41;102585.50;;;20.62;100.00
1480;BME280;732;51.698;4.886;2022-10-03T14:42:08;102683.31;;;21.33;100.00
1480;BME280;732;51.698;4.886;2022-10-03T14:44:46;102710.91;;;21.65;100.00
1480;BME280;732;51.698;4.886;2022-10-03T14:47:21;102702.88;;;21.47;100.00
1480;BME280;732;51.698;4.886;2022-10-03T14:49:54;102646.88;;;21.14;100.00
1480;BME280;732;51.698;4.886;2022-10-03T14:52:32;102673.56;;;21.30;100.00
1480;BME280;732;51.698;4.886;2022-10-03T14:55:13;102703.78;;;21.59;100.00
1480;BME280;732;51.698;4.886;2022-10-03T14:57:47;102687.69;;;21.23;100.00
1480;BME280;732;51.698;4.886;2022-10-03T15:00:40;102635.22;;;20.87;100.00
1480;BME280;732;51.698;4.886;2022-10-03T15:03:23;102685.03;;;21.20;100.00
1480;BME280;732;51.698;4.886;2022-10-03T15:06:00;102676.19;;;21.26;100.00
1480;BME280;732;51.698;4.886;2022-10-03T15:08:34;102689.56;;;21.39;100.00
1480;BME280;732;51.698;4.886;2022-10-03T15:11:06;102654.03;;;21.21;100.00
1480;BME280;732;51.698;4.886;2022-10-03T15:13:43;102686.94;;;21.56;100.00
1480;BME280;732;51.698;4.886;2022-10-03T15:16:19;102624.75;;;21.21;100.00
1480;BME280;732;51.698;4.886;2022-10-03T15:18:55;102490.69;;;20.49;100.00
1480;BME280;732;51.698;4.886;2022-10-03T15:21:24;102515.56;;;20.80;100.00
1480;BME280;732;51.698;4.886;2022-10-03T15:23:59;102588.34;;;21.06;100.00
1480;BME280;732;51.698;4.886;2022-10-03T15:26:34;102664.75;;;21.63;100.00
1480;BME280;732;51.698;4.886;2022-10-03T15:29:05;102444.53;;;20.31;100.00
1480;BME280;732;51.698;4.886;2022-10-03T15:31:36;102594.63;;;21.26;100.00
1480;BME280;732;51.698;4.886;2022-10-03T15:34:19;102529.78;;;20.99;100.00
1480;BME280;732;51.698;4.886;2022-10-03T15:36:51;102643.47;;;21.51;100.00
1480;BME280;732;51.698;4.886;2022-10-03T15:39:27;102591.03;;;21.11;100.00
1480;BME280;732;51.698;4.886;2022-10-03T15:42:01;102611.41;;;21.09;100.00
1480;BME280;732;51.698;4.886;2022-10-03T15:44:34;102651.34;;;21.24;100.00
1480;BME280;732;51.698;4.886;2022-10-03T15:47:11;102651.31;;;21.06;100.00
1480;BME280;732;51.698;4.886;2022-10-03T15:49:47;102644.94;;;20.84;100.00
1480;BME280;732;51.698;4.886;2022-10-03T15:52:21;102651.09;;;20.71;100.00
1480;BME280;732;51.698;4.886;2022-10-03T15:54:55;102639.53;;;20.64;100.00
1480;BME280;732;51.698;4.886;2022-10-03T15:57:44;102630.53;;;20.44;100.00
1480;BME280;732;51.698;4.886;2022-10-03T16:00:27;102602.97;;;20.26;100.00
1480;BME280;732;51.698;4.886;2022-10-03T16:03:13;102380.84;;;18.95;100.00
1480;BME280;732;51.698;4.886;2022-10-03T16:05:57;102650.88;;;20.39;100.00
1480;BME280;732;51.698;4.886;2022-10-03T16:08:30;102640.25;;;20.36;100.00
1480;BME280;732;51.698;4.886;2022-10-03T16:11:08;102624.13;;;20.17;100.00
1480;BME280;732;51.698;4.886;2022-10-03T16:13:42;102640.16;;;20.26;100.00
1480;BME280;732;51.698;4.886;2022-10-03T16:16:17;102608.13;;;20.06;100.00
1480;BME280;732;51.698;4.886;2022-10-03T16:19:15;102620.56;;;20.15;100.00
1480;BME280;732;51.698;4.886;2022-10-03T16:21:49;102626.78;;;20.17;100.00
1480;BME280;732;51.698;4.886;2022-10-03T16:24:31;102622.34;;;20.14;100.00
1480;BME280;732;51.698;4.886;2022-10-03T16:27:11;102611.66;;;20.05;100.00
1480;BME280;732;51.698;4.886;2022-10-03T16:29:48;102627.59;;;20.05;100.00
1480;BME280;732;51.698;4.886;2022-10-03T16:32:21;102461.38;;;19.08;100.00
1480;BME280;732;51.698;4.886;2022-10-03T16:34:51;102628.38;;;19.95;100.00
1480;BME280;732;51.698;4.886;2022-10-03T16:37:25;102631.78;;;19.82;100.00
1480;BME280;732;51.698;4.886;2022-10-03T16:39:59;102465.47;;;18.80;100.00
1480;BME280;732;51.698;4.886;2022-10-03T16:42:38;102625.44;;;19.62;100.00
1480;BME280;732;51.698;4.886;2022-10-03T16:45:23;102595.13;;;19.39;100.00
1480;BME280;732;51.698;4.886;2022-10-03T16:47:55;102599.59;;;19.43;100.00
1480;BME280;732;51.698;4.886;2022-10-03T16:50:46;102599.50;;;19.32;100.00
1480;BME280;732;51.698;4.886;2022-10-03T16:53:18;102618.97;;;19.34;100.00
1480;BME280;732;51.698;4.886;2022-10-03T16:55:51;102610.03;;;19.29;100.00
1480;BME280;732;51.698;4.886;2022-10-03T16:58:29;102598.31;;;19.11;100.00
1480;BME280;732;51.698;4.886;2022-10-03T17:01:02;102616.03;;;19.15;100.00
1480;BME280;732;51.698;4.886;2022-10-03T17:03:56;102599.09;;;18.99;100.00
1480;BME280;732;51.698;4.886;2022-10-03T17:06:29;102592.81;;;18.91;100.00
1480;BME280;732;51.698;4.886;2022-10-03T17:09:04;102607.81;;;18.92;100.00
1480;BME280;732;51.698;4.886;2022-10-03T17:11:36;102618.38;;;18.86;100.00
1480;BME280;732;51.698;4.886;2022-10-03T17:14:08;102596.06;;;18.70;100.00
1480;BME280;732;51.698;4.886;2022-10-03T17:16:39;102596.00;;;18.64;100.00
1480;BME280;732;51.698;4.886;2022-10-03T17:19:19;102589.75;;;18.58;100.00
1480;BME280;732;51.698;4.886;2022-10-03T17:21:57;102612.78;;;18.66;100.00
1480;BME280;732;51.698;4.886;2022-10-03T17:24:41;102598.50;;;18.54;100.00